createdAt,value
2017-08-30T00:01:29.359Z,17.00
2017-08-30T00:03:57.576Z,17.00
2017-08-30T00:06:24.995Z,16.90
2017-08-30T00:08:52.423Z,16.80
2017-08-30T00:11:20.247Z,16.80
2017-08-30T00:13:47.681Z,16.60
2017-08-30T00:16:15.115Z,16.70
2017-08-30T00:18:42.534Z,16.70
2017-08-30T00:21:09.957Z,16.60
2017-08-30T00:23:37.386Z,16.60
2017-08-30T00:26:16.510Z,16.60
2017-08-30T00:28:43.940Z,16.80
2017-08-30T00:31:11.352Z,16.80
2017-08-30T00:33:38.801Z,16.70
2017-08-30T00:36:06.217Z,16.50
2017-08-30T00:38:34.162Z,16.50
2017-08-30T00:41:01.574Z,16.50
2017-08-30T00:43:29.004Z,16.60
2017-08-30T00:45:56.414Z,16.60
2017-08-30T00:48:24.572Z,16.50
2017-08-30T00:50:52.786Z,16.50
2017-08-30T00:53:20.216Z,16.40
2017-08-30T00:55:47.705Z,16.30
2017-08-30T00:58:15.741Z,16.20
2017-08-30T01:00:43.162Z,16.30
2017-08-30T01:03:10.591Z,16.40
2017-08-30T01:05:38.021Z,16.40
2017-08-30T01:08:05.443Z,16.40
2017-08-30T01:10:32.868Z,16.50
2017-08-30T01:13:00.287Z,16.50
2017-08-30T01:15:27.710Z,16.60
2017-08-30T01:17:55.142Z,16.50
2017-08-30T01:20:22.796Z,16.50
2017-08-30T01:22:50.232Z,16.50
2017-08-30T01:25:17.646Z,16.50
2017-08-30T01:27:45.074Z,16.40
2017-08-30T01:30:12.982Z,16.40
2017-08-30T01:32:40.431Z,16.40
2017-08-30T01:35:07.858Z,16.40
2017-08-30T01:37:35.277Z,16.40
2017-08-30T01:40:02.712Z,16.40
2017-08-30T01:42:30.137Z,16.40
2017-08-30T01:44:58.232Z,16.40
2017-08-30T01:47:25.662Z,16.40
2017-08-30T01:49:53.086Z,16.30
2017-08-30T01:52:21.480Z,16.40
2017-08-30T01:54:48.911Z,16.40
2017-08-30T01:57:16.326Z,16.50
2017-08-30T01:59:44.242Z,16.40
2017-08-30T02:02:11.672Z,16.40
2017-08-30T02:04:39.617Z,16.40
2017-08-30T02:07:07.038Z,16.40
2017-08-30T02:09:34.475Z,16.30
2017-08-30T02:12:02.415Z,16.30
2017-08-30T02:14:29.861Z,16.30
2017-08-30T02:16:57.283Z,16.20
2017-08-30T02:19:24.716Z,16.20
2017-08-30T02:21:52.144Z,16.10
2017-08-30T02:24:19.569Z,16.00
2017-08-30T02:26:46.986Z,15.90
2017-08-30T02:29:14.419Z,15.90
2017-08-30T02:31:41.860Z,16.00
2017-08-30T02:34:09.284Z,16.10
2017-08-30T02:36:36.693Z,16.00
2017-08-30T02:39:04.127Z,16.00
2017-08-30T02:41:31.563Z,16.10
2017-08-30T02:43:59.775Z,16.10
2017-08-30T02:46:27.198Z,16.10
2017-08-30T02:48:55.405Z,16.10
2017-08-30T02:51:22.822Z,16.00
2017-08-30T02:53:50.258Z,16.10
2017-08-30T02:56:17.674Z,16.10
2017-08-30T02:58:45.102Z,16.10
2017-08-30T03:01:12.538Z,16.10
2017-08-30T03:03:39.961Z,16.10
2017-08-30T03:06:07.389Z,16.10
2017-08-30T03:08:34.806Z,16.10
2017-08-30T03:11:02.222Z,15.90
2017-08-30T03:13:29.641Z,15.80
2017-08-30T03:15:57.062Z,15.70
2017-08-30T03:18:24.486Z,15.60
2017-08-30T03:20:52.406Z,15.70
2017-08-30T03:23:19.835Z,15.70
2017-08-30T03:25:47.246Z,15.80
2017-08-30T03:28:14.681Z,15.70
2017-08-30T03:30:42.099Z,15.80
2017-08-30T03:33:09.521Z,15.70
2017-08-30T03:35:36.947Z,15.60
2017-08-30T03:38:04.381Z,15.60
2017-08-30T03:40:31.803Z,15.60
2017-08-30T03:42:59.223Z,15.60
2017-08-30T03:45:26.660Z,15.70
2017-08-30T03:47:54.067Z,15.70
2017-08-30T03:50:21.513Z,15.70
2017-08-30T03:52:48.948Z,15.60
2017-08-30T03:55:16.379Z,15.50
2017-08-30T03:57:43.804Z,15.60
2017-08-30T04:00:11.230Z,15.60
2017-08-30T04:02:38.666Z,15.60
2017-08-30T04:05:06.076Z,15.60
2017-08-30T04:07:33.513Z,15.60
2017-08-30T04:10:01.715Z,15.50
2017-08-30T04:12:29.138Z,15.60
2017-08-30T04:14:56.564Z,15.60
2017-08-30T04:17:23.994Z,15.60
2017-08-30T04:19:51.420Z,15.60
2017-08-30T04:22:18.850Z,15.60
2017-08-30T04:24:46.279Z,15.60
2017-08-30T04:27:13.706Z,15.60
2017-08-30T04:29:41.114Z,15.60
2017-08-30T04:32:08.551Z,15.50
2017-08-30T04:34:35.966Z,15.50
2017-08-30T04:37:03.395Z,15.60
2017-08-30T04:39:30.806Z,15.70
2017-08-30T04:41:58.238Z,15.70
2017-08-30T04:44:25.650Z,15.80
2017-08-30T04:46:53.080Z,15.80
2017-08-30T04:49:20.496Z,15.80
2017-08-30T04:51:47.927Z,15.80
2017-08-30T04:54:15.346Z,15.80
2017-08-30T04:56:42.775Z,15.90
2017-08-30T04:59:10.198Z,16.10
2017-08-30T05:01:38.341Z,16.10
2017-08-30T05:04:05.758Z,16.20
2017-08-30T05:06:33.186Z,16.30
2017-08-30T05:09:00.614Z,16.40
2017-08-30T05:11:28.044Z,16.50
2017-08-30T05:13:55.477Z,16.50
2017-08-30T05:16:22.894Z,16.60
2017-08-30T05:18:50.325Z,16.70
2017-08-30T05:21:17.775Z,16.70
2017-08-30T05:23:45.190Z,16.60
2017-08-30T05:26:12.614Z,16.70
2017-08-30T05:28:40.050Z,17.00
2017-08-30T05:31:07.507Z,17.20
2017-08-30T05:33:34.917Z,17.40
2017-08-30T05:36:02.333Z,17.50
2017-08-30T05:38:29.762Z,17.70
2017-08-30T05:40:57.186Z,17.80
2017-08-30T05:43:24.610Z,17.90
2017-08-30T05:45:52.031Z,18.10
2017-08-30T05:48:19.457Z,18.00
2017-08-30T05:50:46.870Z,18.10
2017-08-30T05:53:14.343Z,18.20
2017-08-30T05:55:41.766Z,18.50
2017-08-30T05:58:09.199Z,18.80
2017-08-30T06:00:36.615Z,19.00
2017-08-30T06:03:04.044Z,19.30
2017-08-30T06:05:31.721Z,19.40
2017-08-30T06:07:59.135Z,19.60
2017-08-30T06:10:26.545Z,19.70
2017-08-30T06:12:53.982Z,19.80
2017-08-30T06:15:21.403Z,20.00
2017-08-30T06:17:48.828Z,20.20
2017-08-30T06:20:16.247Z,20.50
2017-08-30T06:22:43.693Z,20.90
2017-08-30T06:25:11.102Z,21.20
2017-08-30T06:27:38.530Z,21.80
2017-08-30T06:30:05.946Z,22.20
2017-08-30T06:32:34.142Z,22.70
2017-08-30T06:35:01.572Z,23.00
2017-08-30T06:37:28.984Z,23.40
2017-08-30T06:39:56.798Z,23.90
2017-08-30T06:42:24.213Z,24.30
2017-08-30T06:44:51.643Z,24.40
2017-08-30T06:47:19.469Z,24.60
2017-08-30T06:49:48.013Z,25.00
2017-08-30T06:52:15.415Z,25.00
2017-08-30T06:54:42.832Z,24.90
2017-08-30T06:57:10.254Z,24.80
2017-08-30T06:59:37.675Z,25.00
2017-08-30T07:02:05.148Z,25.00
2017-08-30T07:04:32.566Z,24.70
2017-08-30T07:06:59.988Z,24.50
2017-08-30T07:09:27.401Z,24.60
2017-08-30T07:11:54.822Z,25.00
2017-08-30T07:14:22.290Z,25.30
2017-08-30T07:16:49.714Z,25.00
2017-08-30T07:19:17.135Z,24.70
2017-08-30T07:21:44.564Z,24.80
2017-08-30T07:24:11.980Z,24.70
2017-08-30T07:26:39.395Z,24.60
2017-08-30T07:29:06.810Z,24.60
2017-08-30T07:31:34.225Z,24.60
2017-08-30T07:34:01.648Z,24.60
2017-08-30T07:36:29.999Z,24.20
2017-08-30T07:38:57.429Z,24.10
2017-08-30T07:41:24.864Z,24.20
2017-08-30T07:43:52.268Z,24.40
2017-08-30T07:46:19.686Z,24.70
2017-08-30T07:48:47.163Z,24.80
2017-08-30T07:51:14.554Z,25.10
2017-08-30T07:53:41.971Z,25.40
2017-08-30T07:56:09.386Z,25.60
2017-08-30T07:58:36.807Z,25.50
2017-08-30T08:01:04.222Z,25.30
2017-08-30T08:03:31.641Z,25.20
2017-08-30T08:05:59.059Z,25.70
2017-08-30T08:08:26.483Z,26.20
2017-08-30T08:10:54.673Z,26.80
2017-08-30T08:13:22.091Z,26.90
2017-08-30T08:15:49.502Z,26.70
2017-08-30T08:18:16.923Z,26.40
2017-08-30T08:20:44.340Z,26.10
2017-08-30T08:23:11.753Z,26.30
2017-08-30T08:25:39.174Z,26.90
2017-08-30T08:28:06.582Z,27.00
2017-08-30T08:30:34.005Z,26.60
2017-08-30T08:33:01.412Z,26.30
2017-08-30T08:35:28.832Z,25.90
2017-08-30T08:37:56.249Z,25.60
2017-08-30T08:40:23.677Z,25.70
2017-08-30T08:42:51.081Z,26.10
2017-08-30T08:45:18.499Z,26.60
2017-08-30T08:47:45.919Z,26.60
2017-08-30T08:50:13.334Z,26.90
2017-08-30T08:52:40.784Z,27.20
2017-08-30T08:55:08.166Z,27.60
2017-08-30T08:57:35.579Z,27.90
2017-08-30T09:00:03.002Z,28.30
2017-08-30T09:02:30.423Z,28.90
2017-08-30T09:04:57.845Z,29.90
2017-08-30T09:07:25.264Z,30.40
2017-08-30T09:09:52.691Z,30.70
2017-08-30T09:12:20.175Z,31.20
2017-08-30T09:14:48.364Z,32.00
2017-08-30T09:17:16.453Z,32.60
2017-08-30T09:19:43.890Z,32.40
2017-08-30T09:22:11.308Z,32.80
2017-08-30T09:24:38.775Z,32.40
2017-08-30T09:27:06.194Z,32.30
2017-08-30T09:29:33.615Z,32.50
2017-08-30T09:32:01.038Z,32.50
2017-08-30T09:34:28.887Z,33.20
2017-08-30T09:36:56.311Z,33.30
2017-08-30T09:39:23.718Z,33.40
2017-08-30T09:41:51.142Z,34.10
2017-08-30T09:44:19.067Z,33.50
2017-08-30T09:46:47.157Z,32.70
2017-08-30T09:49:14.561Z,31.70
2017-08-30T09:51:41.995Z,30.60
2017-08-30T09:54:09.410Z,30.10
2017-08-30T09:56:36.862Z,30.20
2017-08-30T09:59:04.287Z,29.90
2017-08-30T10:01:31.731Z,30.20
2017-08-30T10:03:59.135Z,29.60
2017-08-30T10:06:26.548Z,29.40
2017-08-30T10:08:53.971Z,29.10
2017-08-30T10:11:21.381Z,29.20
2017-08-30T10:13:48.806Z,29.30
2017-08-30T10:16:16.218Z,29.30
2017-08-30T10:18:43.653Z,29.20
2017-08-30T10:21:11.058Z,29.30
2017-08-30T10:23:39.371Z,28.90
2017-08-30T10:26:06.778Z,28.80
2017-08-30T10:28:34.582Z,28.90
2017-08-30T10:31:01.995Z,28.80
2017-08-30T10:33:30.236Z,29.00
2017-08-30T10:35:57.650Z,29.90
2017-08-30T10:38:25.066Z,30.80
2017-08-30T10:40:52.475Z,31.70
2017-08-30T10:43:19.895Z,31.20
2017-08-30T10:45:47.313Z,31.50
2017-08-30T10:48:14.722Z,31.60
2017-08-30T10:50:42.147Z,31.60
2017-08-30T10:53:09.561Z,31.80
2017-08-30T10:55:36.981Z,31.20
2017-08-30T10:58:04.404Z,31.00
2017-08-30T11:00:32.463Z,31.10
2017-08-30T11:02:59.870Z,31.30
2017-08-30T11:05:27.290Z,32.00
2017-08-30T11:07:54.702Z,32.90
2017-08-30T11:10:22.126Z,32.90
2017-08-30T11:12:49.562Z,32.80
2017-08-30T11:15:16.982Z,32.70
2017-08-30T11:17:44.390Z,31.60
2017-08-30T11:20:11.809Z,31.10
2017-08-30T11:22:39.234Z,30.80
2017-08-30T11:25:07.338Z,30.50
2017-08-30T11:27:34.749Z,30.40
2017-08-30T11:30:02.173Z,30.50
2017-08-30T11:32:29.586Z,30.10
2017-08-30T11:34:57.010Z,29.80
2017-08-30T11:37:24.438Z,29.60
2017-08-30T11:39:51.859Z,29.80
2017-08-30T11:42:19.286Z,29.80
2017-08-30T11:44:46.710Z,30.30
2017-08-30T11:47:14.138Z,30.50
2017-08-30T11:49:41.552Z,30.50
2017-08-30T11:52:08.975Z,30.50
2017-08-30T11:54:36.383Z,30.80
2017-08-30T11:57:03.801Z,31.00
2017-08-30T11:59:31.221Z,31.00
2017-08-30T12:01:58.645Z,31.20
2017-08-30T12:04:26.067Z,31.90
2017-08-30T12:06:53.486Z,32.00
2017-08-30T12:09:21.707Z,31.80
2017-08-30T12:11:49.129Z,32.00
2017-08-30T12:14:16.563Z,31.70
2017-08-30T12:16:43.999Z,31.60
2017-08-30T12:19:11.426Z,30.90
2017-08-30T12:21:39.195Z,30.20
2017-08-30T12:24:08.279Z,29.70
2017-08-30T12:26:36.653Z,29.60
2017-08-30T12:29:04.162Z,29.60
2017-08-30T12:31:31.563Z,29.30
2017-08-30T12:33:59.806Z,29.10
2017-08-30T12:36:27.227Z,28.70
2017-08-30T12:39:00.397Z,29.00
2017-08-30T12:41:27.826Z,29.30
2017-08-30T12:43:55.254Z,29.30
2017-08-30T12:46:22.676Z,29.30
2017-08-30T12:48:50.129Z,29.00
2017-08-30T12:51:17.548Z,29.00
2017-08-30T12:53:44.974Z,28.80
2017-08-30T12:56:12.389Z,28.90
2017-08-30T12:58:39.815Z,29.30
2017-08-30T13:01:07.233Z,29.70
2017-08-30T13:03:34.658Z,29.90
2017-08-30T13:06:02.074Z,30.10
2017-08-30T13:08:29.502Z,30.20
2017-08-30T13:10:56.918Z,30.20
2017-08-30T13:13:24.342Z,30.50
2017-08-30T13:15:52.536Z,31.00
2017-08-30T13:18:19.945Z,31.00
2017-08-30T13:20:47.599Z,31.00
2017-08-30T13:23:14.994Z,31.20
2017-08-30T13:25:42.431Z,31.50
2017-08-30T13:28:09.863Z,31.70
2017-08-30T13:30:37.274Z,32.00
2017-08-30T13:33:04.686Z,32.20
2017-08-30T13:35:32.110Z,32.40
2017-08-30T13:37:59.531Z,32.40
2017-08-30T13:40:26.952Z,32.60
2017-08-30T13:42:54.374Z,32.10
2017-08-30T13:45:22.595Z,32.30
2017-08-30T13:47:50.018Z,32.40
2017-08-30T13:50:17.437Z,32.60
2017-08-30T13:52:44.855Z,32.80
2017-08-30T13:55:12.277Z,32.80
2017-08-30T13:57:39.695Z,32.70
2017-08-30T14:00:07.654Z,31.90
2017-08-30T14:02:35.583Z,31.70
2017-08-30T14:05:03.038Z,31.90
2017-08-30T14:07:30.469Z,31.50
2017-08-30T14:09:57.882Z,31.10
2017-08-30T14:12:25.302Z,31.20
2017-08-30T14:14:52.723Z,31.60
2017-08-30T14:17:20.134Z,31.70
2017-08-30T14:19:47.583Z,32.00
2017-08-30T14:22:15.011Z,31.60
2017-08-30T14:24:42.428Z,31.70
2017-08-30T14:27:09.844Z,32.10
2017-08-30T14:29:37.259Z,31.90
2017-08-30T14:32:04.677Z,32.10
2017-08-30T14:34:32.089Z,31.90
2017-08-30T14:36:59.624Z,31.60
2017-08-30T14:39:27.033Z,31.30
2017-08-30T14:41:54.445Z,31.30
2017-08-30T14:44:21.876Z,30.60
2017-08-30T14:46:49.291Z,30.20
2017-08-30T14:49:16.719Z,30.20
2017-08-30T14:51:44.121Z,30.80
2017-08-30T14:54:11.555Z,31.20
2017-08-30T14:56:38.962Z,31.60
2017-08-30T14:59:06.386Z,31.00
2017-08-30T15:01:33.799Z,30.70
2017-08-30T15:04:01.237Z,30.50
2017-08-30T15:06:28.638Z,29.80
2017-08-30T15:08:56.062Z,29.40
2017-08-30T15:11:23.475Z,29.30
2017-08-30T15:13:50.899Z,29.10
2017-08-30T15:16:18.360Z,28.80
2017-08-30T15:18:45.780Z,28.60
2017-08-30T15:21:13.193Z,28.50
2017-08-30T15:23:40.645Z,28.30
2017-08-30T15:26:08.021Z,28.30
2017-08-30T15:28:35.430Z,28.80
2017-08-30T15:31:02.854Z,28.40
2017-08-30T15:33:30.272Z,28.30
2017-08-30T15:35:57.689Z,28.50
2017-08-30T15:38:25.102Z,28.50
2017-08-30T15:40:52.525Z,29.10
2017-08-30T15:43:19.930Z,28.90
2017-08-30T15:45:47.356Z,28.50
2017-08-30T15:48:14.773Z,27.90
2017-08-30T15:50:42.199Z,27.40
2017-08-30T15:53:09.614Z,27.20
2017-08-30T15:55:37.934Z,27.20
2017-08-30T15:58:05.346Z,27.40
2017-08-30T16:00:32.775Z,27.60
2017-08-30T16:03:00.186Z,27.70
2017-08-30T16:05:27.610Z,27.90
2017-08-30T16:07:55.072Z,27.90
2017-08-30T16:10:22.494Z,28.00
2017-08-30T16:12:49.902Z,28.00
2017-08-30T16:15:17.963Z,27.80
2017-08-30T16:17:45.358Z,27.60
2017-08-30T16:20:12.771Z,27.30
2017-08-30T16:22:40.222Z,27.30
2017-08-30T16:25:07.637Z,27.50
2017-08-30T16:27:35.060Z,27.40
2017-08-30T16:30:02.473Z,27.40
2017-08-30T16:32:29.891Z,27.20
2017-08-30T16:34:57.306Z,27.10
2017-08-30T16:37:25.350Z,26.70
2017-08-30T16:39:52.781Z,26.50
2017-08-30T16:42:20.197Z,26.50
2017-08-30T16:44:57.250Z,26.60
2017-08-30T16:47:24.673Z,26.50
2017-08-30T16:49:52.083Z,26.50
2017-08-30T16:52:19.506Z,26.40
2017-08-30T16:54:46.939Z,26.40
2017-08-30T16:57:14.340Z,26.40
2017-08-30T16:59:41.771Z,26.40
2017-08-30T17:02:09.188Z,26.10
2017-08-30T17:04:36.625Z,26.00
2017-08-30T17:07:04.061Z,25.90
2017-08-30T17:09:31.458Z,25.90
2017-08-30T17:11:58.872Z,25.90
2017-08-30T17:14:26.290Z,25.90
2017-08-30T17:16:53.734Z,25.70
2017-08-30T17:19:21.159Z,25.70
2017-08-30T17:21:48.577Z,25.60
2017-08-30T17:24:15.989Z,25.50
2017-08-30T17:26:44.166Z,25.40
2017-08-30T17:29:11.590Z,25.40
2017-08-30T17:31:39.006Z,25.40
2017-08-30T17:34:06.426Z,25.40
2017-08-30T17:36:34.142Z,25.30
2017-08-30T17:39:01.558Z,25.30
2017-08-30T17:41:29.498Z,25.10
2017-08-30T17:43:56.959Z,24.90
2017-08-30T17:46:25.246Z,24.90
2017-08-30T17:48:52.680Z,24.90
2017-08-30T17:51:20.091Z,24.90
2017-08-30T17:53:47.502Z,24.80
2017-08-30T17:56:14.934Z,24.80
2017-08-30T17:58:42.350Z,24.90
2017-08-30T18:01:09.771Z,24.90
2017-08-30T18:03:37.193Z,24.90
2017-08-30T18:06:04.610Z,25.00
2017-08-30T18:08:32.027Z,25.00
2017-08-30T18:10:59.442Z,24.80
2017-08-30T18:13:26.868Z,24.80
2017-08-30T18:15:54.282Z,24.80
2017-08-30T18:18:21.702Z,24.80
2017-08-30T18:20:49.141Z,24.80
2017-08-30T18:23:17.464Z,24.60
2017-08-30T18:25:44.874Z,24.20
2017-08-30T18:28:12.299Z,24.10
2017-08-30T18:30:39.718Z,24.00
2017-08-30T18:33:07.145Z,23.80
2017-08-30T18:35:34.546Z,23.70
2017-08-30T18:38:01.962Z,23.40
2017-08-30T18:40:29.384Z,23.10
2017-08-30T18:42:56.798Z,22.90
2017-08-30T18:45:24.215Z,22.90
2017-08-30T18:47:51.633Z,23.00
2017-08-30T18:50:19.056Z,23.00
2017-08-30T18:52:46.466Z,23.00
2017-08-30T18:55:13.887Z,22.90
2017-08-30T18:57:41.306Z,23.00
2017-08-30T19:00:08.726Z,23.10
2017-08-30T19:02:36.156Z,23.10
2017-08-30T19:05:03.624Z,23.10
2017-08-30T19:07:31.039Z,23.00
2017-08-30T19:09:58.451Z,22.90
2017-08-30T19:12:25.880Z,22.90
2017-08-30T19:14:53.289Z,22.90
2017-08-30T19:17:20.700Z,22.60
2017-08-30T19:19:48.110Z,22.50
2017-08-30T19:22:15.580Z,22.40
2017-08-30T19:24:42.981Z,22.30
2017-08-30T19:27:10.470Z,22.40
2017-08-30T19:29:37.887Z,22.30
2017-08-30T19:32:05.303Z,22.30
2017-08-30T19:34:33.473Z,22.40
2017-08-30T19:37:00.914Z,22.40
2017-08-30T19:39:28.323Z,22.50
2017-08-30T19:41:55.756Z,22.50
2017-08-30T19:44:23.161Z,22.50
2017-08-30T19:46:50.589Z,22.60
2017-08-30T19:49:18.010Z,22.60
2017-08-30T19:51:45.422Z,22.70
2017-08-30T19:54:12.840Z,22.80
2017-08-30T19:56:40.273Z,22.70
2017-08-30T19:59:07.686Z,22.80
2017-08-30T20:01:35.115Z,22.90
2017-08-30T20:04:02.532Z,23.00
2017-08-30T20:06:29.938Z,23.00
2017-08-30T20:08:57.355Z,22.90
2017-08-30T20:11:24.770Z,22.90
2017-08-30T20:13:52.198Z,22.90
2017-08-30T20:16:19.618Z,22.90
2017-08-30T20:18:47.034Z,22.80
2017-08-30T20:21:14.462Z,22.90
2017-08-30T20:23:41.878Z,22.90
2017-08-30T20:26:09.336Z,22.80
2017-08-30T20:28:36.750Z,22.80
2017-08-30T20:31:05.018Z,22.80
2017-08-30T20:33:32.493Z,22.80
2017-08-30T20:36:00.138Z,22.70
2017-08-30T20:38:27.538Z,22.70
2017-08-30T20:40:54.948Z,22.60
2017-08-30T20:43:22.372Z,22.50
2017-08-30T20:45:49.779Z,22.50
2017-08-30T20:48:17.194Z,22.40
2017-08-30T20:50:44.605Z,22.40
2017-08-30T20:53:12.032Z,22.40
2017-08-30T20:55:39.443Z,22.50
2017-08-30T20:58:06.858Z,22.50
2017-08-30T21:00:34.277Z,22.40
2017-08-30T21:03:01.690Z,22.50
2017-08-30T21:05:29.538Z,22.30
2017-08-30T21:07:56.949Z,22.20
2017-08-30T21:10:24.374Z,22.10
2017-08-30T21:12:52.690Z,21.90
2017-08-30T21:15:20.110Z,21.70
2017-08-30T21:17:47.527Z,21.70
2017-08-30T21:20:14.942Z,21.60
2017-08-30T21:22:42.354Z,21.60
2017-08-30T21:25:10.591Z,21.50
2017-08-30T21:27:37.996Z,21.40
2017-08-30T21:30:05.419Z,21.30
2017-08-30T21:32:33.529Z,21.10
2017-08-30T21:35:00.947Z,21.10
2017-08-30T21:37:28.357Z,21.10
2017-08-30T21:39:55.782Z,21.00
2017-08-30T21:42:23.978Z,21.10
2017-08-30T21:44:51.397Z,21.10
2017-08-30T21:47:18.809Z,21.10
2017-08-30T21:49:46.230Z,21.20
2017-08-30T21:52:13.652Z,21.20
2017-08-30T21:54:41.074Z,21.20
2017-08-30T21:57:08.486Z,21.10
2017-08-30T21:59:35.898Z,21.10
2017-08-30T22:02:03.311Z,21.00
2017-08-30T22:04:30.740Z,20.80
2017-08-30T22:06:58.146Z,20.70
2017-08-30T22:09:25.571Z,20.60
2017-08-30T22:11:52.978Z,20.60
2017-08-30T22:14:20.387Z,20.70
2017-08-30T22:16:47.813Z,20.60
2017-08-30T22:19:15.223Z,20.50
2017-08-30T22:21:42.643Z,20.30
2017-08-30T22:24:10.059Z,20.20
2017-08-30T22:26:37.484Z,20.10
2017-08-30T22:29:04.896Z,20.00
2017-08-30T22:31:32.310Z,20.00
2017-08-30T22:33:59.718Z,19.90
2017-08-30T22:36:27.142Z,19.90
2017-08-30T22:38:54.554Z,19.90
2017-08-30T22:41:22.034Z,20.00
2017-08-30T22:43:49.810Z,20.00
2017-08-30T22:46:17.235Z,20.10
2017-08-30T22:48:44.655Z,20.20
2017-08-30T22:51:12.063Z,20.20
2017-08-30T22:53:39.478Z,20.10
2017-08-30T22:56:06.906Z,20.20
2017-08-30T22:58:34.328Z,20.10
2017-08-30T23:01:01.747Z,20.20
2017-08-30T23:03:29.166Z,20.20
2017-08-30T23:05:56.582Z,20.30
2017-08-30T23:08:24.003Z,20.30
2017-08-30T23:10:51.418Z,20.30
2017-08-30T23:13:19.225Z,20.30
2017-08-30T23:15:47.036Z,20.30
2017-08-30T23:18:14.994Z,20.40
2017-08-30T23:20:42.414Z,20.40
2017-08-30T23:23:09.842Z,20.40
2017-08-30T23:25:37.260Z,20.40
2017-08-30T23:28:05.301Z,20.40
2017-08-30T23:30:32.718Z,20.40
2017-08-30T23:33:00.142Z,20.30
2017-08-30T23:35:27.554Z,20.30
2017-08-30T23:37:55.869Z,20.40
2017-08-30T23:40:23.278Z,20.40
2017-08-30T23:42:50.693Z,20.40
2017-08-30T23:45:18.109Z,20.50
2017-08-30T23:47:45.526Z,20.40
2017-08-30T23:50:12.945Z,20.50
2017-08-30T23:52:40.376Z,20.50
2017-08-30T23:55:07.785Z,20.50
2017-08-30T23:57:35.878Z,20.60
